SWSK weather

Fazenda São Marco Airport
Boa Vista, Roraima, Brazil

Public forecast

Using degrees Celsius for public forecast. Weather courtesy of forecast.io.

Closest aviation weather report (METAR) to Fazenda São Marco Airport

Closest report is Atlas Brasil Cantanhede Airport, 17.7 nm (32.7 km) SW. Retrieved 2020/02/17 18:00 UTC (2 minutes ago):

SBBV 171800Z 08006KT 9999 BKN040 BKN070 32/20 Q1009

Closest aviation forecast (TAF) to Fazenda São Marco Airport

Closest forecast is Atlas Brasil Cantanhede Airport, 17.7 nm (32.7 km) SW. Retrieved 2020/02/17 18:00 UTC (2 minutes ago):

TAF SBBV 171500Z 1718/1818 10010KT 9999 FEW040 TX34/1718Z TN26/1809Z RMK PHD